sensor_id;sensor_type;location;lat;lon;timestamp;temperature;humidity
29201;DHT22;16244;51.956;12.980;2023-01-29T00:00:16;-0.80;92.30
29201;DHT22;16244;51.956;12.980;2023-01-29T00:02:43;-0.70;92.30
29201;DHT22;16244;51.956;12.980;2023-01-29T00:05:11;-0.80;92.30
29201;DHT22;16244;51.956;12.980;2023-01-29T00:07:38;-0.80;92.20
29201;DHT22;16244;51.956;12.980;2023-01-29T00:10:06;-0.80;92.70
29201;DHT22;16244;51.956;12.980;2023-01-29T00:12:35;-0.70;92.30
29201;DHT22;16244;51.956;12.980;2023-01-29T00:15:03;-0.70;92.20
29201;DHT22;16244;51.956;12.980;2023-01-29T00:17:31;-0.80;92.30
29201;DHT22;16244;51.956;12.980;2023-01-29T00:19:58;-0.80;92.30
29201;DHT22;16244;51.956;12.980;2023-01-29T00:22:25;-0.70;92.40
29201;DHT22;16244;51.956;12.980;2023-01-29T00:24:52;-0.70;92.30
29201;DHT22;16244;51.956;12.980;2023-01-29T00:27:20;-0.70;91.90
29201;DHT22;16244;51.956;12.980;2023-01-29T00:29:48;-0.80;92.00
29201;DHT22;16244;51.956;12.980;2023-01-29T00:32:34;-0.80;92.40
29201;DHT22;16244;51.956;12.980;2023-01-29T00:35:01;-0.70;92.30
29201;DHT22;16244;51.956;12.980;2023-01-29T00:37:29;-0.70;92.60
29201;DHT22;16244;51.956;12.980;2023-01-29T00:39:56;-0.70;92.20
29201;DHT22;16244;51.956;12.980;2023-01-29T00:42:24;-0.70;92.40
29201;DHT22;16244;51.956;12.980;2023-01-29T00:45:11;-0.70;92.50
29201;DHT22;16244;51.956;12.980;2023-01-29T00:47:38;-0.70;92.80
29201;DHT22;16244;51.956;12.980;2023-01-29T00:50:07;-0.70;92.80
29201;DHT22;16244;51.956;12.980;2023-01-29T00:52:36;-0.70;92.90
29201;DHT22;16244;51.956;12.980;2023-01-29T00:55:06;-0.70;92.90
29201;DHT22;16244;51.956;12.980;2023-01-29T00:57:35;-0.70;92.90
29201;DHT22;16244;51.956;12.980;2023-01-29T01:00:04;-0.70;92.90
29201;DHT22;16244;51.956;12.980;2023-01-29T01:02:33;-0.70;92.80
29201;DHT22;16244;51.956;12.980;2023-01-29T01:05:18;-0.70;93.00
29201;DHT22;16244;51.956;12.980;2023-01-29T01:07:46;-0.70;93.20
29201;DHT22;16244;51.956;12.980;2023-01-29T01:10:16;-0.70;92.90
29201;DHT22;16244;51.956;12.980;2023-01-29T01:12:52;-0.70;92.80
29201;DHT22;16244;51.956;12.980;2023-01-29T01:15:21;-0.70;92.80
29201;DHT22;16244;51.956;12.980;2023-01-29T01:17:53;-0.70;92.90
29201;DHT22;16244;51.956;12.980;2023-01-29T01:20:21;-0.70;93.10
29201;DHT22;16244;51.956;12.980;2023-01-29T01:22:48;-0.80;92.90
29201;DHT22;16244;51.956;12.980;2023-01-29T01:25:15;-0.70;93.00
29201;DHT22;16244;51.956;12.980;2023-01-29T01:27:43;-0.90;92.80
29201;DHT22;16244;51.956;12.980;2023-01-29T01:30:12;-0.90;92.80
29201;DHT22;16244;51.956;12.980;2023-01-29T01:32:41;-0.90;93.00
29201;DHT22;16244;51.956;12.980;2023-01-29T01:35:10;-0.90;92.90
29201;DHT22;16244;51.956;12.980;2023-01-29T01:37:40;-0.90;92.80
29201;DHT22;16244;51.956;12.980;2023-01-29T01:40:12;-0.90;92.90
29201;DHT22;16244;51.956;12.980;2023-01-29T01:42:43;-1.00;92.80
29201;DHT22;16244;51.956;12.980;2023-01-29T01:45:18;-1.10;93.00
29201;DHT22;16244;51.956;12.980;2023-01-29T01:47:49;-1.00;92.90
29201;DHT22;16244;51.956;12.980;2023-01-29T01:50:22;-1.00;93.20
29201;DHT22;16244;51.956;12.980;2023-01-29T01:52:52;-1.00;92.90
29201;DHT22;16244;51.956;12.980;2023-01-29T01:55:25;-1.00;93.00
29201;DHT22;16244;51.956;12.980;2023-01-29T01:57:56;-1.00;93.00
29201;DHT22;16244;51.956;12.980;2023-01-29T02:00:26;-1.00;92.70
29201;DHT22;16244;51.956;12.980;2023-01-29T02:02:53;-1.00;92.80
29201;DHT22;16244;51.956;12.980;2023-01-29T02:05:40;-0.90;92.80
29201;DHT22;16244;51.956;12.980;2023-01-29T02:08:29;-0.90;92.70
29201;DHT22;16244;51.956;12.980;2023-01-29T02:11:16;-1.00;92.30
29201;DHT22;16244;51.956;12.980;2023-01-29T02:13:44;-1.00;92.30
29201;DHT22;16244;51.956;12.980;2023-01-29T02:16:11;-1.00;92.60
29201;DHT22;16244;51.956;12.980;2023-01-29T02:18:38;-0.90;92.60
29201;DHT22;16244;51.956;12.980;2023-01-29T02:21:21;-0.90;92.10
29201;DHT22;16244;51.956;12.980;2023-01-29T02:27:07;-0.90;92.30
29201;DHT22;16244;51.956;12.980;2023-01-29T02:29:46;-0.80;92.30
29201;DHT22;16244;51.956;12.980;2023-01-29T02:32:20;-0.80;92.40
29201;DHT22;16244;51.956;12.980;2023-01-29T02:34:56;-0.80;92.30
29201;DHT22;16244;51.956;12.980;2023-01-29T02:37:49;-0.80;92.50
29201;DHT22;16244;51.956;12.980;2023-01-29T02:40:24;-0.80;92.40
29201;DHT22;16244;51.956;12.980;2023-01-29T02:42:58;-0.90;92.30
29201;DHT22;16244;51.956;12.980;2023-01-29T02:45:32;-0.90;92.40
29201;DHT22;16244;51.956;12.980;2023-01-29T02:48:01;-0.80;92.30
29201;DHT22;16244;51.956;12.980;2023-01-29T02:50:32;-0.80;92.30
29201;DHT22;16244;51.956;12.980;2023-01-29T02:53:05;-0.80;92.30
29201;DHT22;16244;51.956;12.980;2023-01-29T02:55:39;-0.90;92.70
29201;DHT22;16244;51.956;12.980;2023-01-29T02:58:10;-0.90;92.40
29201;DHT22;16244;51.956;12.980;2023-01-29T03:00:42;-0.90;92.50
29201;DHT22;16244;51.956;12.980;2023-01-29T03:03:15;-0.90;92.70
29201;DHT22;16244;51.956;12.980;2023-01-29T03:05:49;-0.80;92.70
29201;DHT22;16244;51.956;12.980;2023-01-29T03:08:22;-0.80;92.60
29201;DHT22;16244;51.956;12.980;2023-01-29T03:11:04;-0.80;92.60
29201;DHT22;16244;51.956;12.980;2023-01-29T03:13:36;-0.90;92.40
29201;DHT22;16244;51.956;12.980;2023-01-29T03:16:12;-0.80;92.80
29201;DHT22;16244;51.956;12.980;2023-01-29T03:18:43;-0.80;92.50
29201;DHT22;16244;51.956;12.980;2023-01-29T03:21:17;-0.80;92.40
29201;DHT22;16244;51.956;12.980;2023-01-29T03:24:03;-0.80;92.80
29201;DHT22;16244;51.956;12.980;2023-01-29T03:26:51;-0.80;92.80
29201;DHT22;16244;51.956;12.980;2023-01-29T03:29:37;-0.80;92.60
29201;DHT22;16244;51.956;12.980;2023-01-29T03:32:26;-0.90;92.40
29201;DHT22;16244;51.956;12.980;2023-01-29T03:34:57;-0.90;92.80
29201;DHT22;16244;51.956;12.980;2023-01-29T03:37:31;-1.00;92.50
29201;DHT22;16244;51.956;12.980;2023-01-29T03:40:00;-1.00;93.00
29201;DHT22;16244;51.956;12.980;2023-01-29T03:42:37;-1.00;93.10
29201;DHT22;16244;51.956;12.980;2023-01-29T03:45:14;-1.00;93.20
29201;DHT22;16244;51.956;12.980;2023-01-29T03:47:47;-0.90;93.30
29201;DHT22;16244;51.956;12.980;2023-01-29T03:50:28;-0.90;93.30
29201;DHT22;16244;51.956;12.980;2023-01-29T03:53:01;-0.90;93.10
29201;DHT22;16244;51.956;12.980;2023-01-29T03:55:35;-0.90;93.40
29201;DHT22;16244;51.956;12.980;2023-01-29T03:58:11;-0.80;92.90
29201;DHT22;16244;51.956;12.980;2023-01-29T04:00:50;-0.80;93.10
29201;DHT22;16244;51.956;12.980;2023-01-29T04:03:23;-0.80;93.10
29201;DHT22;16244;51.956;12.980;2023-01-29T04:05:54;-0.80;93.10
29201;DHT22;16244;51.956;12.980;2023-01-29T04:08:25;-0.80;93.00
29201;DHT22;16244;51.956;12.980;2023-01-29T04:10:55;-0.80;93.30
29201;DHT22;16244;51.956;12.980;2023-01-29T04:13:24;-0.70;93.00
29201;DHT22;16244;51.956;12.980;2023-01-29T04:15:55;-0.70;93.10
29201;DHT22;16244;51.956;12.980;2023-01-29T04:18:26;-0.80;92.80
29201;DHT22;16244;51.956;12.980;2023-01-29T04:20:53;-0.70;93.20
29201;DHT22;16244;51.956;12.980;2023-01-29T04:23:23;-0.70;92.80
29201;DHT22;16244;51.956;12.980;2023-01-29T04:25:57;-0.70;93.10
29201;DHT22;16244;51.956;12.980;2023-01-29T04:28:46;-0.70;92.90
29201;DHT22;16244;51.956;12.980;2023-01-29T04:31:15;-0.70;93.40
29201;DHT22;16244;51.956;12.980;2023-01-29T04:33:55;-0.70;93.30
29201;DHT22;16244;51.956;12.980;2023-01-29T04:36:33;-0.70;93.20
29201;DHT22;16244;51.956;12.980;2023-01-29T04:39:09;-0.70;93.20
29201;DHT22;16244;51.956;12.980;2023-01-29T04:41:45;-0.70;93.20
29201;DHT22;16244;51.956;12.980;2023-01-29T04:44:17;-0.70;93.30
29201;DHT22;16244;51.956;12.980;2023-01-29T04:46:50;-0.70;93.30
29201;DHT22;16244;51.956;12.980;2023-01-29T04:49:29;-0.70;93.70
29201;DHT22;16244;51.956;12.980;2023-01-29T04:52:04;-0.70;93.60
29201;DHT22;16244;51.956;12.980;2023-01-29T04:54:42;-0.70;93.60
29201;DHT22;16244;51.956;12.980;2023-01-29T04:57:17;-0.70;93.80
29201;DHT22;16244;51.956;12.980;2023-01-29T04:59:55;-0.70;94.10
29201;DHT22;16244;51.956;12.980;2023-01-29T05:02:26;-0.60;94.00
29201;DHT22;16244;51.956;12.980;2023-01-29T05:04:56;-0.60;94.30
29201;DHT22;16244;51.956;12.980;2023-01-29T05:07:26;-0.60;94.70
29201;DHT22;16244;51.956;12.980;2023-01-29T05:09:55;-0.70;95.10
29201;DHT22;16244;51.956;12.980;2023-01-29T05:12:24;-0.70;95.60
29201;DHT22;16244;51.956;12.980;2023-01-29T05:14:52;-0.70;95.60
29201;DHT22;16244;51.956;12.980;2023-01-29T05:17:21;-0.70;95.70
29201;DHT22;16244;51.956;12.980;2023-01-29T05:19:49;-0.70;95.70
29201;DHT22;16244;51.956;12.980;2023-01-29T05:22:18;-0.70;95.60
29201;DHT22;16244;51.956;12.980;2023-01-29T05:24:47;-0.70;95.60
29201;DHT22;16244;51.956;12.980;2023-01-29T05:27:18;-0.60;95.60
29201;DHT22;16244;51.956;12.980;2023-01-29T05:30:04;-0.60;95.00
29201;DHT22;16244;51.956;12.980;2023-01-29T05:32:32;-0.60;95.40
29201;DHT22;16244;51.956;12.980;2023-01-29T05:34:59;-0.60;95.00
29201;DHT22;16244;51.956;12.980;2023-01-29T05:37:28;-0.60;95.00
29201;DHT22;16244;51.956;12.980;2023-01-29T05:39:55;-0.60;95.20
29201;DHT22;16244;51.956;12.980;2023-01-29T05:42:22;-0.60;95.20
29201;DHT22;16244;51.956;12.980;2023-01-29T05:44:50;-0.50;95.30
29201;DHT22;16244;51.956;12.980;2023-01-29T05:47:18;-0.50;95.60
29201;DHT22;16244;51.956;12.980;2023-01-29T05:49:45;-0.50;95.40
29201;DHT22;16244;51.956;12.980;2023-01-29T05:52:13;-0.50;95.50
29201;DHT22;16244;51.956;12.980;2023-01-29T05:54:41;-0.50;95.50
29201;DHT22;16244;51.956;12.980;2023-01-29T05:57:08;-0.60;95.40
29201;DHT22;16244;51.956;12.980;2023-01-29T05:59:36;-0.50;95.80
29201;DHT22;16244;51.956;12.980;2023-01-29T06:02:03;-0.50;95.80
29201;DHT22;16244;51.956;12.980;2023-01-29T06:04:30;-0.50;95.90
29201;DHT22;16244;51.956;12.980;2023-01-29T06:06:57;-0.50;95.90
29201;DHT22;16244;51.956;12.980;2023-01-29T06:09:26;-0.50;96.10
29201;DHT22;16244;51.956;12.980;2023-01-29T06:11:55;-0.50;96.30
29201;DHT22;16244;51.956;12.980;2023-01-29T06:14:22;-0.50;96.50
29201;DHT22;16244;51.956;12.980;2023-01-29T06:16:49;-0.50;96.60
29201;DHT22;16244;51.956;12.980;2023-01-29T06:19:17;-0.50;96.90
29201;DHT22;16244;51.956;12.980;2023-01-29T06:21:45;-0.40;96.90
29201;DHT22;16244;51.956;12.980;2023-01-29T06:24:13;-0.40;97.30
29201;DHT22;16244;51.956;12.980;2023-01-29T06:26:40;-0.50;97.50
29201;DHT22;16244;51.956;12.980;2023-01-29T06:29:09;-0.50;97.60
29201;DHT22;16244;51.956;12.980;2023-01-29T06:31:36;-0.50;97.80
29201;DHT22;16244;51.956;12.980;2023-01-29T06:34:03;-0.50;97.90
29201;DHT22;16244;51.956;12.980;2023-01-29T06:36:31;-0.50;98.10
29201;DHT22;16244;51.956;12.980;2023-01-29T06:38:58;-0.50;98.10
29201;DHT22;16244;51.956;12.980;2023-01-29T06:41:25;-0.40;98.20
29201;DHT22;16244;51.956;12.980;2023-01-29T06:43:53;-0.40;98.30
29201;DHT22;16244;51.956;12.980;2023-01-29T06:46:22;-0.40;98.10
29201;DHT22;16244;51.956;12.980;2023-01-29T06:48:49;-0.40;98.00
29201;DHT22;16244;51.956;12.980;2023-01-29T06:51:16;-0.40;98.10
29201;DHT22;16244;51.956;12.980;2023-01-29T06:53:44;-0.30;98.10
29201;DHT22;16244;51.956;12.980;2023-01-29T06:56:11;-0.40;98.10
29201;DHT22;16244;51.956;12.980;2023-01-29T06:58:38;-0.40;98.10
29201;DHT22;16244;51.956;12.980;2023-01-29T07:01:07;-0.40;98.20
29201;DHT22;16244;51.956;12.980;2023-01-29T07:03:36;-0.30;98.00
29201;DHT22;16244;51.956;12.980;2023-01-29T07:06:04;-0.30;98.00
29201;DHT22;16244;51.956;12.980;2023-01-29T07:08:35;-0.30;98.10
29201;DHT22;16244;51.956;12.980;2023-01-29T07:11:03;-0.40;98.00
29201;DHT22;16244;51.956;12.980;2023-01-29T07:13:30;-0.40;98.10
29201;DHT22;16244;51.956;12.980;2023-01-29T07:15:58;-0.40;98.50
29201;DHT22;16244;51.956;12.980;2023-01-29T07:18:25;-0.40;98.50
29201;DHT22;16244;51.956;12.980;2023-01-29T07:20:55;-0.40;98.60
29201;DHT22;16244;51.956;12.980;2023-01-29T07:23:23;-0.40;98.70
29201;DHT22;16244;51.956;12.980;2023-01-29T07:25:50;-0.40;98.50
29201;DHT22;16244;51.956;12.980;2023-01-29T07:28:19;-0.40;98.70
29201;DHT22;16244;51.956;12.980;2023-01-29T07:30:46;-0.40;98.40
29201;DHT22;16244;51.956;12.980;2023-01-29T07:33:14;-0.30;98.70
29201;DHT22;16244;51.956;12.980;2023-01-29T07:35:42;-0.30;98.60
29201;DHT22;16244;51.956;12.980;2023-01-29T07:38:10;-0.30;98.70
29201;DHT22;16244;51.956;12.980;2023-01-29T07:40:38;-0.50;98.70
29201;DHT22;16244;51.956;12.980;2023-01-29T07:43:06;-0.40;99.00
29201;DHT22;16244;51.956;12.980;2023-01-29T07:45:34;-0.40;99.10
29201;DHT22;16244;51.956;12.980;2023-01-29T07:48:03;-0.30;99.00
29201;DHT22;16244;51.956;12.980;2023-01-29T07:50:32;-0.40;98.80
29201;DHT22;16244;51.956;12.980;2023-01-29T07:53:00;-0.40;99.10
29201;DHT22;16244;51.956;12.980;2023-01-29T07:55:29;-0.40;99.20
29201;DHT22;16244;51.956;12.980;2023-01-29T07:57:57;-0.40;99.10
29201;DHT22;16244;51.956;12.980;2023-01-29T08:00:25;-0.30;99.00
29201;DHT22;16244;51.956;12.980;2023-01-29T08:02:52;-0.30;99.00
29201;DHT22;16244;51.956;12.980;2023-01-29T08:05:20;-0.30;99.00
29201;DHT22;16244;51.956;12.980;2023-01-29T08:07:52;-0.30;99.00
29201;DHT22;16244;51.956;12.980;2023-01-29T08:10:20;-0.40;98.80
29201;DHT22;16244;51.956;12.980;2023-01-29T08:12:54;-0.30;98.70
29201;DHT22;16244;51.956;12.980;2023-01-29T08:15:21;-0.30;98.80
29201;DHT22;16244;51.956;12.980;2023-01-29T08:17:50;-0.30;98.70
29201;DHT22;16244;51.956;12.980;2023-01-29T08:20:18;-0.30;98.60
29201;DHT22;16244;51.956;12.980;2023-01-29T08:22:45;-0.20;98.50
29201;DHT22;16244;51.956;12.980;2023-01-29T08:25:12;-0.20;98.20
29201;DHT22;16244;51.956;12.980;2023-01-29T08:27:40;-0.20;98.50
29201;DHT22;16244;51.956;12.980;2023-01-29T08:30:10;-0.20;98.40
29201;DHT22;16244;51.956;12.980;2023-01-29T08:32:38;-0.20;98.60
29201;DHT22;16244;51.956;12.980;2023-01-29T08:35:05;-0.20;98.40
29201;DHT22;16244;51.956;12.980;2023-01-29T08:37:33;-0.20;98.30
29201;DHT22;16244;51.956;12.980;2023-01-29T08:40:00;-0.10;98.20
29201;DHT22;16244;51.956;12.980;2023-01-29T08:42:36;-0.10;98.60
29201;DHT22;16244;51.956;12.980;2023-01-29T08:45:03;-0.10;98.30
29201;DHT22;16244;51.956;12.980;2023-01-29T08:47:30;-0.10;98.20
29201;DHT22;16244;51.956;12.980;2023-01-29T08:49:58;0.00;98.40
29201;DHT22;16244;51.956;12.980;2023-01-29T08:52:25;-0.10;98.10
29201;DHT22;16244;51.956;12.980;2023-01-29T08:54:52;-0.10;98.30
29201;DHT22;16244;51.956;12.980;2023-01-29T08:57:19;-0.10;98.10
29201;DHT22;16244;51.956;12.980;2023-01-29T08:59:48;0.00;98.10
29201;DHT22;16244;51.956;12.980;2023-01-29T09:02:15;0.00;98.10
29201;DHT22;16244;51.956;12.980;2023-01-29T09:04:42;0.00;98.00
29201;DHT22;16244;51.956;12.980;2023-01-29T09:07:09;0.10;98.30
29201;DHT22;16244;51.956;12.980;2023-01-29T09:09:36;0.20;98.20
29201;DHT22;16244;51.956;12.980;2023-01-29T09:12:04;0.20;98.10
29201;DHT22;16244;51.956;12.980;2023-01-29T09:14:32;0.20;98.00
29201;DHT22;16244;51.956;12.980;2023-01-29T09:17:00;0.20;98.20
29201;DHT22;16244;51.956;12.980;2023-01-29T09:19:27;0.20;98.20
29201;DHT22;16244;51.956;12.980;2023-01-29T09:21:54;0.30;98.00
29201;DHT22;16244;51.956;12.980;2023-01-29T09:24:21;0.30;97.80
29201;DHT22;16244;51.956;12.980;2023-01-29T09:26:49;0.30;97.90
29201;DHT22;16244;51.956;12.980;2023-01-29T09:29:16;0.20;98.00
29201;DHT22;16244;51.956;12.980;2023-01-29T09:31:43;0.30;98.30
29201;DHT22;16244;51.956;12.980;2023-01-29T09:34:11;0.30;98.10
29201;DHT22;16244;51.956;12.980;2023-01-29T09:36:39;0.40;97.70
29201;DHT22;16244;51.956;12.980;2023-01-29T09:39:06;0.40;97.70
29201;DHT22;16244;51.956;12.980;2023-01-29T09:41:42;0.40;97.80
29201;DHT22;16244;51.956;12.980;2023-01-29T09:44:19;0.40;97.70
29201;DHT22;16244;51.956;12.980;2023-01-29T09:46:49;0.50;97.90
29201;DHT22;16244;51.956;12.980;2023-01-29T09:49:23;0.60;97.70
29201;DHT22;16244;51.956;12.980;2023-01-29T09:51:56;0.60;97.40
29201;DHT22;16244;51.956;12.980;2023-01-29T09:54:29;0.60;97.50
29201;DHT22;16244;51.956;12.980;2023-01-29T09:56:57;0.70;97.50
29201;DHT22;16244;51.956;12.980;2023-01-29T09:59:26;0.70;97.40
29201;DHT22;16244;51.956;12.980;2023-01-29T10:02:04;0.80;97.50
29201;DHT22;16244;51.956;12.980;2023-01-29T10:07:43;0.80;96.90
29201;DHT22;16244;51.956;12.980;2023-01-29T10:10:25;0.90;96.90
29201;DHT22;16244;51.956;12.980;2023-01-29T10:13:06;0.80;96.70
29201;DHT22;16244;51.956;12.980;2023-01-29T10:16:00;0.80;96.90
29201;DHT22;16244;51.956;12.980;2023-01-29T10:18:55;0.80;96.80
29201;DHT22;16244;51.956;12.980;2023-01-29T10:21:36;0.90;96.40
29201;DHT22;16244;51.956;12.980;2023-01-29T10:24:19;1.00;96.60
29201;DHT22;16244;51.956;12.980;2023-01-29T10:26:49;1.00;96.30
29201;DHT22;16244;51.956;12.980;2023-01-29T10:29:18;1.00;96.30
29201;DHT22;16244;51.956;12.980;2023-01-29T10:31:49;0.90;96.40
29201;DHT22;16244;51.956;12.980;2023-01-29T10:34:23;0.90;96.20
29201;DHT22;16244;51.956;12.980;2023-01-29T10:36:55;1.10;96.40
29201;DHT22;16244;51.956;12.980;2023-01-29T10:39:24;1.30;95.80
29201;DHT22;16244;51.956;12.980;2023-01-29T10:42:03;1.50;95.40
29201;DHT22;16244;51.956;12.980;2023-01-29T10:44:43;1.60;95.00
29201;DHT22;16244;51.956;12.980;2023-01-29T10:47:29;1.70;94.80
29201;DHT22;16244;51.956;12.980;2023-01-29T10:50:10;1.70;94.20
29201;DHT22;16244;51.956;12.980;2023-01-29T10:52:54;1.70;94.00
29201;DHT22;16244;51.956;12.980;2023-01-29T10:55:35;1.60;94.10
29201;DHT22;16244;51.956;12.980;2023-01-29T10:58:15;1.50;94.30
29201;DHT22;16244;51.956;12.980;2023-01-29T11:00:46;1.60;94.70
29201;DHT22;16244;51.956;12.980;2023-01-29T11:03:14;1.70;94.60
29201;DHT22;16244;51.956;12.980;2023-01-29T11:05:44;1.70;94.40
29201;DHT22;16244;51.956;12.980;2023-01-29T11:08:17;1.80;94.40
29201;DHT22;16244;51.956;12.980;2023-01-29T11:10:50;1.80;94.30
29201;DHT22;16244;51.956;12.980;2023-01-29T11:13:31;1.80;94.30
29201;DHT22;16244;51.956;12.980;2023-01-29T11:16:02;1.80;94.40
29201;DHT22;16244;51.956;12.980;2023-01-29T11:18:48;1.80;94.00
29201;DHT22;16244;51.956;12.980;2023-01-29T11:21:16;1.80;94.10
29201;DHT22;16244;51.956;12.980;2023-01-29T11:23:44;1.80;94.20
29201;DHT22;16244;51.956;12.980;2023-01-29T11:26:15;1.90;94.10
29201;DHT22;16244;51.956;12.980;2023-01-29T11:28:44;1.80;94.00
29201;DHT22;16244;51.956;12.980;2023-01-29T11:31:21;1.80;94.50
29201;DHT22;16244;51.956;12.980;2023-01-29T11:33:50;1.90;94.40
29201;DHT22;16244;51.956;12.980;2023-01-29T11:36:29;1.80;94.10
29201;DHT22;16244;51.956;12.980;2023-01-29T11:39:14;1.80;94.60
29201;DHT22;16244;51.956;12.980;2023-01-29T11:41:43;1.70;94.50
29201;DHT22;16244;51.956;12.980;2023-01-29T11:44:18;1.70;94.30
29201;DHT22;16244;51.956;12.980;2023-01-29T11:46:45;1.60;94.60
29201;DHT22;16244;51.956;12.980;2023-01-29T11:49:22;1.60;94.20
29201;DHT22;16244;51.956;12.980;2023-01-29T11:51:52;1.50;94.60
29201;DHT22;16244;51.956;12.980;2023-01-29T11:54:25;1.50;94.70
29201;DHT22;16244;51.956;12.980;2023-01-29T11:56:54;1.50;94.70
29201;DHT22;16244;51.956;12.980;2023-01-29T11:59:38;1.50;94.60
29201;DHT22;16244;51.956;12.980;2023-01-29T12:02:18;1.60;94.60
29201;DHT22;16244;51.956;12.980;2023-01-29T12:04:47;1.60;94.60
29201;DHT22;16244;51.956;12.980;2023-01-29T12:07:15;1.50;94.40
29201;DHT22;16244;51.956;12.980;2023-01-29T12:09:51;1.60;94.70
29201;DHT22;16244;51.956;12.980;2023-01-29T12:12:31;1.50;94.40
29201;DHT22;16244;51.956;12.980;2023-01-29T12:15:08;1.60;94.70
29201;DHT22;16244;51.956;12.980;2023-01-29T12:17:43;1.70;94.40
29201;DHT22;16244;51.956;12.980;2023-01-29T12:20:14;1.70;94.20
29201;DHT22;16244;51.956;12.980;2023-01-29T12:22:48;1.70;94.00
29201;DHT22;16244;51.956;12.980;2023-01-29T12:25:22;1.70;94.00
29201;DHT22;16244;51.956;12.980;2023-01-29T12:27:56;1.70;94.00
29201;DHT22;16244;51.956;12.980;2023-01-29T12:30:28;1.70;93.80
29201;DHT22;16244;51.956;12.980;2023-01-29T12:33:04;1.80;94.10
29201;DHT22;16244;51.956;12.980;2023-01-29T12:35:40;1.80;93.80
29201;DHT22;16244;51.956;12.980;2023-01-29T12:38:13;1.80;93.60
29201;DHT22;16244;51.956;12.980;2023-01-29T12:40:48;1.80;93.50
29201;DHT22;16244;51.956;12.980;2023-01-29T12:43:23;1.80;93.60
29201;DHT22;16244;51.956;12.980;2023-01-29T12:45:54;1.80;93.80
29201;DHT22;16244;51.956;12.980;2023-01-29T12:48:26;1.80;93.50
29201;DHT22;16244;51.956;12.980;2023-01-29T12:50:56;1.80;93.50
29201;DHT22;16244;51.956;12.980;2023-01-29T12:53:27;1.80;93.80
29201;DHT22;16244;51.956;12.980;2023-01-29T12:56:01;1.90;93.80
29201;DHT22;16244;51.956;12.980;2023-01-29T12:58:31;1.90;93.90
29201;DHT22;16244;51.956;12.980;2023-01-29T13:01:03;1.90;94.30
29201;DHT22;16244;51.956;12.980;2023-01-29T13:03:36;1.80;94.60
29201;DHT22;16244;51.956;12.980;2023-01-29T13:06:10;1.80;95.10
29201;DHT22;16244;51.956;12.980;2023-01-29T13:08:42;1.80;95.20
29201;DHT22;16244;51.956;12.980;2023-01-29T13:11:17;1.70;95.10
29201;DHT22;16244;51.956;12.980;2023-01-29T13:13:49;1.60;95.20
29201;DHT22;16244;51.956;12.980;2023-01-29T13:16:20;1.60;94.90
29201;DHT22;16244;51.956;12.980;2023-01-29T13:18:51;1.60;95.10
29201;DHT22;16244;51.956;12.980;2023-01-29T13:21:22;1.60;95.00
29201;DHT22;16244;51.956;12.980;2023-01-29T13:23:54;1.50;94.90
29201;DHT22;16244;51.956;12.980;2023-01-29T13:26:23;1.50;94.90
29201;DHT22;16244;51.956;12.980;2023-01-29T13:28:51;1.50;95.40
29201;DHT22;16244;51.956;12.980;2023-01-29T13:31:29;1.50;95.50
29201;DHT22;16244;51.956;12.980;2023-01-29T13:34:07;1.40;95.60
29201;DHT22;16244;51.956;12.980;2023-01-29T13:36:39;1.50;95.60
29201;DHT22;16244;51.956;12.980;2023-01-29T13:39:19;1.40;95.90
29201;DHT22;16244;51.956;12.980;2023-01-29T13:41:50;1.40;96.50
29201;DHT22;16244;51.956;12.980;2023-01-29T13:44:21;1.30;96.70
29201;DHT22;16244;51.956;12.980;2023-01-29T13:46:53;1.30;96.80
29201;DHT22;16244;51.956;12.980;2023-01-29T13:49:34;1.20;97.10
29201;DHT22;16244;51.956;12.980;2023-01-29T13:55:20;1.30;97.70
29201;DHT22;16244;51.956;12.980;2023-01-29T13:57:54;1.30;97.70
29201;DHT22;16244;51.956;12.980;2023-01-29T14:00:54;1.20;98.10
29201;DHT22;16244;51.956;12.980;2023-01-29T14:03:50;1.20;98.10
29201;DHT22;16244;51.956;12.980;2023-01-29T14:06:42;1.20;98.20
29201;DHT22;16244;51.956;12.980;2023-01-29T14:09:30;1.20;98.60
29201;DHT22;16244;51.956;12.980;2023-01-29T14:11:58;1.30;98.40
29201;DHT22;16244;51.956;12.980;2023-01-29T14:14:58;1.20;98.50
29201;DHT22;16244;51.956;12.980;2023-01-29T14:17:27;1.30;98.70
29201;DHT22;16244;51.956;12.980;2023-01-29T14:20:01;1.20;98.60
29201;DHT22;16244;51.956;12.980;2023-01-29T14:22:29;1.20;98.60
29201;DHT22;16244;51.956;12.980;2023-01-29T14:25:00;1.20;98.90
29201;DHT22;16244;51.956;12.980;2023-01-29T14:27:29;1.20;98.90
29201;DHT22;16244;51.956;12.980;2023-01-29T14:30:05;1.30;99.00
29201;DHT22;16244;51.956;12.980;2023-01-29T14:32:33;1.20;99.00
29201;DHT22;16244;51.956;12.980;2023-01-29T14:35:02;1.20;99.20
29201;DHT22;16244;51.956;12.980;2023-01-29T14:37:32;1.20;99.10
29201;DHT22;16244;51.956;12.980;2023-01-29T14:40:14;1.20;99.20
29201;DHT22;16244;51.956;12.980;2023-01-29T14:42:55;1.20;99.20
29201;DHT22;16244;51.956;12.980;2023-01-29T14:45:27;1.10;99.50
29201;DHT22;16244;51.956;12.980;2023-01-29T14:47:57;1.20;99.60
29201;DHT22;16244;51.956;12.980;2023-01-29T14:50:47;1.20;99.40
29201;DHT22;16244;51.956;12.980;2023-01-29T14:53:19;1.10;99.40
29201;DHT22;16244;51.956;12.980;2023-01-29T14:55:53;1.10;99.40
29201;DHT22;16244;51.956;12.980;2023-01-29T14:58:23;1.10;99.40
29201;DHT22;16244;51.956;12.980;2023-01-29T15:00:56;1.10;99.40
29201;DHT22;16244;51.956;12.980;2023-01-29T15:03:29;1.10;99.30
29201;DHT22;16244;51.956;12.980;2023-01-29T15:06:01;1.10;99.40
29201;DHT22;16244;51.956;12.980;2023-01-29T15:08:36;1.10;99.70
29201;DHT22;16244;51.956;12.980;2023-01-29T15:11:07;1.00;99.50
29201;DHT22;16244;51.956;12.980;2023-01-29T15:14:01;1.00;99.40
29201;DHT22;16244;51.956;12.980;2023-01-29T15:16:40;1.00;99.60
29201;DHT22;16244;51.956;12.980;2023-01-29T15:19:14;1.00;99.60
29201;DHT22;16244;51.956;12.980;2023-01-29T15:22:04;1.00;99.40
29201;DHT22;16244;51.956;12.980;2023-01-29T15:24:31;1.00;99.60
29201;DHT22;16244;51.956;12.980;2023-01-29T15:26:59;1.00;99.50
29201;DHT22;16244;51.956;12.980;2023-01-29T15:29:27;1.00;99.80
29201;DHT22;16244;51.956;12.980;2023-01-29T15:31:56;1.00;99.70
29201;DHT22;16244;51.956;12.980;2023-01-29T15:34:24;0.90;99.70
29201;DHT22;16244;51.956;12.980;2023-01-29T15:36:52;0.80;99.70
29201;DHT22;16244;51.956;12.980;2023-01-29T15:39:20;0.80;99.90
29201;DHT22;16244;51.956;12.980;2023-01-29T15:41:49;0.90;99.70
29201;DHT22;16244;51.956;12.980;2023-01-29T15:44:19;0.80;99.90
29201;DHT22;16244;51.956;12.980;2023-01-29T15:46:50;0.90;99.80
29201;DHT22;16244;51.956;12.980;2023-01-29T15:49:23;0.80;99.40
29201;DHT22;16244;51.956;12.980;2023-01-29T15:51:55;0.80;99.70
29201;DHT22;16244;51.956;12.980;2023-01-29T15:54:24;0.80;99.80
29201;DHT22;16244;51.956;12.980;2023-01-29T15:56:52;0.90;99.70
29201;DHT22;16244;51.956;12.980;2023-01-29T15:59:22;0.80;99.90
29201;DHT22;16244;51.956;12.980;2023-01-29T16:01:50;0.80;99.90